sensor_id;sensor_type;location;lat;lon;timestamp;pressure;altitude;pressure_sealevel;temperature;humidity
61963;BME280;47927;42.646;23.096;2023-04-07T00:00:23;91794.75;;;3.61;47.98
61963;BME280;47927;42.646;23.096;2023-04-07T00:02:48;91750.25;;;3.36;48.32
61963;BME280;47927;42.646;23.096;2023-04-07T00:05:14;91801.72;;;3.73;48.57
61963;BME280;47927;42.646;23.096;2023-04-07T00:07:40;91741.66;;;3.32;48.44
61963;BME280;47927;42.646;23.096;2023-04-07T00:10:06;91804.69;;;3.75;47.94
61963;BME280;47927;42.646;23.096;2023-04-07T00:12:32;91795.03;;;3.72;47.78
61963;BME280;47927;42.646;23.096;2023-04-07T00:14:58;91794.63;;;3.70;48.07
61963;BME280;47927;42.646;23.096;2023-04-07T00:17:23;91790.09;;;3.79;47.90
61963;BME280;47927;42.646;23.096;2023-04-07T00:19:49;91795.31;;;3.95;47.39
61963;BME280;47927;42.646;23.096;2023-04-07T00:22:20;91795.09;;;4.00;46.95
61963;BME280;47927;42.646;23.096;2023-04-07T00:24:46;91718.19;;;3.33;46.92
61963;BME280;47927;42.646;23.096;2023-04-07T00:27:12;91789.47;;;3.82;47.42
61963;BME280;47927;42.646;23.096;2023-04-07T00:29:37;91791.16;;;3.90;47.53
61963;BME280;47927;42.646;23.096;2023-04-07T00:32:03;91710.44;;;3.46;47.89
61963;BME280;47927;42.646;23.096;2023-04-07T00:34:28;91783.53;;;3.94;47.22
61963;BME280;47927;42.646;23.096;2023-04-07T00:36:54;91784.34;;;3.98;47.40
61963;BME280;47927;42.646;23.096;2023-04-07T00:39:20;91784.88;;;4.03;47.23
61963;BME280;47927;42.646;23.096;2023-04-07T00:41:46;91786.19;;;3.32;48.93
61963;BME280;47927;42.646;23.096;2023-04-07T00:44:12;91786.81;;;3.54;48.52
61963;BME280;47927;42.646;23.096;2023-04-07T00:46:39;91792.38;;;3.68;48.29
61963;BME280;47927;42.646;23.096;2023-04-07T00:49:05;91797.41;;;3.77;47.24
61963;BME280;47927;42.646;23.096;2023-04-07T00:51:31;91790.38;;;3.89;47.44
61963;BME280;47927;42.646;23.096;2023-04-07T00:53:58;91660.63;;;3.01;47.45
61963;BME280;47927;42.646;23.096;2023-04-07T00:56:24;91708.19;;;3.32;47.39
61963;BME280;47927;42.646;23.096;2023-04-07T00:58:53;91726.28;;;3.48;46.94
61963;BME280;47927;42.646;23.096;2023-04-07T01:01:22;91786.38;;;3.64;47.40
61963;BME280;47927;42.646;23.096;2023-04-07T01:03:57;91740.78;;;3.52;47.79
61963;BME280;47927;42.646;23.096;2023-04-07T01:06:29;91738.75;;;3.58;47.67
61963;BME280;47927;42.646;23.096;2023-04-07T01:09:22;91788.69;;;3.94;47.00
61963;BME280;47927;42.646;23.096;2023-04-07T01:14:44;91779.63;;;4.00;46.03
61963;BME280;47927;42.646;23.096;2023-04-07T01:17:44;91778.41;;;4.09;46.60
61963;BME280;47927;42.646;23.096;2023-04-07T01:20:18;91784.09;;;4.15;46.46
61963;BME280;47927;42.646;23.096;2023-04-07T01:22:53;91760.72;;;4.08;45.81
61963;BME280;47927;42.646;23.096;2023-04-07T01:30:56;91744.94;;;3.97;46.27
61963;BME280;47927;42.646;23.096;2023-04-07T01:33:23;91699.09;;;3.62;46.21
61963;BME280;47927;42.646;23.096;2023-04-07T01:35:49;91712.59;;;3.72;46.79
61963;BME280;47927;42.646;23.096;2023-04-07T01:38:16;91684.13;;;3.52;46.75
61963;BME280;47927;42.646;23.096;2023-04-07T01:40:43;91774.13;;;4.14;46.68
61963;BME280;47927;42.646;23.096;2023-04-07T01:43:10;91706.38;;;3.73;47.29
61963;BME280;47927;42.646;23.096;2023-04-07T01:45:37;91769.88;;;4.21;46.91
61963;BME280;47927;42.646;23.096;2023-04-07T01:48:05;91769.47;;;4.19;47.16
61963;BME280;47927;42.646;23.096;2023-04-07T01:50:32;91712.16;;;3.82;47.53
61963;BME280;47927;42.646;23.096;2023-04-07T01:52:58;91768.72;;;4.19;46.80
61963;BME280;47927;42.646;23.096;2023-04-07T01:55:24;91762.53;;;4.07;46.51
61963;BME280;47927;42.646;23.096;2023-04-07T01:58:03;91741.91;;;4.07;46.73
61963;BME280;47927;42.646;23.096;2023-04-07T02:00:29;91763.41;;;4.27;47.13
61963;BME280;47927;42.646;23.096;2023-04-07T02:02:58;91696.78;;;3.85;46.60
61963;BME280;47927;42.646;23.096;2023-04-07T02:05:26;91757.38;;;4.36;47.32
61963;BME280;47927;42.646;23.096;2023-04-07T02:08:04;91705.97;;;3.99;46.69
61963;BME280;47927;42.646;23.096;2023-04-07T02:10:36;91694.91;;;3.98;46.08
61963;BME280;47927;42.646;23.096;2023-04-07T02:13:04;91761.19;;;4.42;46.56
61963;BME280;47927;42.646;23.096;2023-04-07T02:15:35;91751.25;;;4.28;46.62
61963;BME280;47927;42.646;23.096;2023-04-07T02:18:02;91570.09;;;3.11;46.66
61963;BME280;47927;42.646;23.096;2023-04-07T02:20:29;91758.47;;;4.34;46.56
61963;BME280;47927;42.646;23.096;2023-04-07T02:22:56;91756.78;;;4.42;45.96
61963;BME280;47927;42.646;23.096;2023-04-07T02:25:30;91665.03;;;3.81;45.67
61963;BME280;47927;42.646;23.096;2023-04-07T02:27:57;91758.25;;;4.55;45.43
61963;BME280;47927;42.646;23.096;2023-04-07T02:30:24;91762.47;;;4.48;46.22
61963;BME280;47927;42.646;23.096;2023-04-07T02:32:50;91657.69;;;3.83;46.29
61963;BME280;47927;42.646;23.096;2023-04-07T02:35:16;91755.97;;;4.38;46.50
61963;BME280;47927;42.646;23.096;2023-04-07T02:37:43;91752.69;;;4.25;46.78
61963;BME280;47927;42.646;23.096;2023-04-07T02:40:09;91758.16;;;4.24;47.03
61963;BME280;47927;42.646;23.096;2023-04-07T02:42:35;91763.28;;;4.36;47.11
61963;BME280;47927;42.646;23.096;2023-04-07T02:45:04;91754.06;;;4.51;46.84
61963;BME280;47927;42.646;23.096;2023-04-07T02:47:32;91762.50;;;4.20;46.76
61963;BME280;47927;42.646;23.096;2023-04-07T02:49:58;91759.19;;;4.35;47.12
61963;BME280;47927;42.646;23.096;2023-04-07T02:52:24;91690.75;;;3.94;47.00
61963;BME280;47927;42.646;23.096;2023-04-07T02:54:49;91759.66;;;4.53;46.63
61963;BME280;47927;42.646;23.096;2023-04-07T02:57:19;91758.78;;;4.49;46.87
61963;BME280;47927;42.646;23.096;2023-04-07T02:59:45;91725.81;;;4.26;46.64
61963;BME280;47927;42.646;23.096;2023-04-07T03:02:13;91747.72;;;4.32;46.57
61963;BME280;47927;42.646;23.096;2023-04-07T03:04:39;91766.09;;;4.03;47.74
61963;BME280;47927;42.646;23.096;2023-04-07T03:07:07;91696.97;;;3.64;47.55
61963;BME280;47927;42.646;23.096;2023-04-07T03:09:33;91738.72;;;3.98;46.74
61963;BME280;47927;42.646;23.096;2023-04-07T03:11:59;91767.59;;;4.32;46.96
61963;BME280;47927;42.646;23.096;2023-04-07T03:14:29;91769.09;;;4.33;47.51
61963;BME280;47927;42.646;23.096;2023-04-07T03:16:55;91768.38;;;4.48;47.35
61963;BME280;47927;42.646;23.096;2023-04-07T03:19:21;91672.03;;;3.69;46.37
61963;BME280;47927;42.646;23.096;2023-04-07T03:21:48;91766.03;;;4.43;46.09
61963;BME280;47927;42.646;23.096;2023-04-07T03:24:14;91700.06;;;3.98;43.02
61963;BME280;47927;42.646;23.096;2023-04-07T03:26:40;91763.66;;;4.22;43.08
61963;BME280;47927;42.646;23.096;2023-04-07T03:29:15;91689.88;;;3.61;42.95
61963;BME280;47927;42.646;23.096;2023-04-07T03:31:41;91631.31;;;3.30;43.12
61963;BME280;47927;42.646;23.096;2023-04-07T03:34:07;91731.22;;;3.53;43.74
61963;BME280;47927;42.646;23.096;2023-04-07T03:36:33;91762.19;;;3.81;43.43
61963;BME280;47927;42.646;23.096;2023-04-07T03:39:02;91768.50;;;3.96;43.35
61963;BME280;47927;42.646;23.096;2023-04-07T03:41:28;91751.31;;;3.87;43.41
61963;BME280;47927;42.646;23.096;2023-04-07T03:43:53;91681.81;;;3.35;44.21
61963;BME280;47927;42.646;23.096;2023-04-07T03:46:19;91737.53;;;3.68;44.75
61963;BME280;47927;42.646;23.096;2023-04-07T03:48:46;91588.13;;;2.71;44.68
61963;BME280;47927;42.646;23.096;2023-04-07T03:51:12;91772.78;;;3.92;45.10
61963;BME280;47927;42.646;23.096;2023-04-07T03:53:38;91772.03;;;3.91;45.52
61963;BME280;47927;42.646;23.096;2023-04-07T03:56:16;91765.06;;;3.92;45.44
61963;BME280;47927;42.646;23.096;2023-04-07T03:58:49;91767.63;;;3.92;46.07
61963;BME280;47927;42.646;23.096;2023-04-07T04:01:27;91750.47;;;3.83;45.90
61963;BME280;47927;42.646;23.096;2023-04-07T04:03:55;91771.94;;;3.87;45.74
61963;BME280;47927;42.646;23.096;2023-04-07T04:06:23;91690.72;;;3.37;46.65
61963;BME280;47927;42.646;23.096;2023-04-07T04:08:50;91760.03;;;3.83;46.92
61963;BME280;47927;42.646;23.096;2023-04-07T04:11:17;91779.72;;;4.03;46.70
61963;BME280;47927;42.646;23.096;2023-04-07T04:13:51;91780.25;;;4.09;46.19
61963;BME280;47927;42.646;23.096;2023-04-07T04:16:17;91781.59;;;4.19;46.64
61963;BME280;47927;42.646;23.096;2023-04-07T04:18:44;91760.94;;;4.03;46.71
61963;BME280;47927;42.646;23.096;2023-04-07T04:21:12;91760.38;;;4.09;46.39
61963;BME280;47927;42.646;23.096;2023-04-07T04:23:40;91785.31;;;4.33;46.80
61963;BME280;47927;42.646;23.096;2023-04-07T04:26:06;91788.50;;;4.43;46.44
61963;BME280;47927;42.646;23.096;2023-04-07T04:28:32;91786.69;;;4.43;46.79
61963;BME280;47927;42.646;23.096;2023-04-07T04:30:59;91665.81;;;3.70;46.25
61963;BME280;47927;42.646;23.096;2023-04-07T04:33:25;91777.94;;;4.48;46.84
61963;BME280;47927;42.646;23.096;2023-04-07T04:35:55;91740.44;;;4.22;47.22
61963;BME280;47927;42.646;23.096;2023-04-07T04:38:23;91715.72;;;4.05;47.17
61963;BME280;47927;42.646;23.096;2023-04-07T04:40:56;91777.38;;;4.54;46.92
61963;BME280;47927;42.646;23.096;2023-04-07T04:43:28;91792.22;;;4.73;46.81
61963;BME280;47927;42.646;23.096;2023-04-07T04:45:55;91798.22;;;4.77;46.98
61963;BME280;47927;42.646;23.096;2023-04-07T04:48:24;91792.91;;;4.86;47.74
61963;BME280;47927;42.646;23.096;2023-04-07T04:50:50;91760.41;;;4.69;47.64
61963;BME280;47927;42.646;23.096;2023-04-07T04:53:15;91771.81;;;4.84;47.67
61963;BME280;47927;42.646;23.096;2023-04-07T04:55:47;91802.38;;;4.82;45.68
61963;BME280;47927;42.646;23.096;2023-04-07T04:58:19;91799.66;;;4.91;44.31
61963;BME280;47927;42.646;23.096;2023-04-07T05:00:48;91782.63;;;5.06;43.26
61963;BME280;47927;42.646;23.096;2023-04-07T05:03:14;91800.56;;;5.30;44.81
61963;BME280;47927;42.646;23.096;2023-04-07T05:05:46;91805.63;;;5.42;42.17
61963;BME280;47927;42.646;23.096;2023-04-07T05:08:11;91800.72;;;5.37;40.98
61963;BME280;47927;42.646;23.096;2023-04-07T05:10:38;91757.75;;;5.13;41.86
61963;BME280;47927;42.646;23.096;2023-04-07T05:13:07;91803.50;;;5.64;40.99
61963;BME280;47927;42.646;23.096;2023-04-07T05:15:34;91806.81;;;5.80;40.35
61963;BME280;47927;42.646;23.096;2023-04-07T05:17:59;91769.28;;;5.51;40.18
61963;BME280;47927;42.646;23.096;2023-04-07T05:20:26;91764.66;;;4.93;40.53
61963;BME280;47927;42.646;23.096;2023-04-07T05:22:53;91815.03;;;5.35;40.76
61963;BME280;47927;42.646;23.096;2023-04-07T05:25:22;91823.88;;;5.34;40.68
61963;BME280;47927;42.646;23.096;2023-04-07T05:27:52;91814.06;;;5.08;41.57
61963;BME280;47927;42.646;23.096;2023-04-07T05:30:17;91755.06;;;4.62;40.74
61963;BME280;47927;42.646;23.096;2023-04-07T05:32:43;91758.91;;;4.84;40.98
61963;BME280;47927;42.646;23.096;2023-04-07T05:35:19;91678.75;;;4.77;39.75
61963;BME280;47927;42.646;23.096;2023-04-07T05:37:50;91747.16;;;5.69;38.92
61963;BME280;47927;42.646;23.096;2023-04-07T05:40:16;91760.50;;;6.49;38.47
61963;BME280;47927;42.646;23.096;2023-04-07T05:42:42;91839.03;;;7.22;37.41
61963;BME280;47927;42.646;23.096;2023-04-07T05:45:09;91826.69;;;7.35;37.58
61963;BME280;47927;42.646;23.096;2023-04-07T05:47:39;91832.66;;;8.46;36.64
61963;BME280;47927;42.646;23.096;2023-04-07T05:50:05;91824.75;;;8.38;33.97
61963;BME280;47927;42.646;23.096;2023-04-07T05:52:33;91825.69;;;8.87;34.20
61963;BME280;47927;42.646;23.096;2023-04-07T05:55:08;91747.09;;;9.01;32.16
61963;BME280;47927;42.646;23.096;2023-04-07T05:57:34;91770.06;;;8.95;30.70
61963;BME280;47927;42.646;23.096;2023-04-07T06:00:02;91768.72;;;9.12;31.40
61963;BME280;47927;42.646;23.096;2023-04-07T06:02:29;91769.19;;;9.76;30.88
61963;BME280;47927;42.646;23.096;2023-04-07T06:04:55;91825.41;;;9.95;29.35
61963;BME280;47927;42.646;23.096;2023-04-07T06:07:21;91790.22;;;10.19;29.08
61963;BME280;47927;42.646;23.096;2023-04-07T06:09:47;91824.50;;;12.97;25.66
61963;BME280;47927;42.646;23.096;2023-04-07T06:12:13;91788.75;;;15.95;22.40
61963;BME280;47927;42.646;23.096;2023-04-07T06:14:41;91835.13;;;18.85;20.14
61963;BME280;47927;42.646;23.096;2023-04-07T06:17:07;91828.66;;;19.92;18.00
61963;BME280;47927;42.646;23.096;2023-04-07T06:19:32;91794.34;;;18.15;19.28
61963;BME280;47927;42.646;23.096;2023-04-07T06:21:59;91817.66;;;16.78;20.79
61963;BME280;47927;42.646;23.096;2023-04-07T06:24:24;91827.63;;;15.53;21.51
61963;BME280;47927;42.646;23.096;2023-04-07T06:26:53;91827.00;;;15.18;21.75
61963;BME280;47927;42.646;23.096;2023-04-07T06:29:20;91830.09;;;13.58;22.69
61963;BME280;47927;42.646;23.096;2023-04-07T06:31:46;91810.53;;;14.15;22.60
61963;BME280;47927;42.646;23.096;2023-04-07T06:34:11;91834.19;;;13.63;23.00
61963;BME280;47927;42.646;23.096;2023-04-07T06:36:37;91841.06;;;13.91;23.12
61963;BME280;47927;42.646;23.096;2023-04-07T06:39:03;91836.16;;;14.38;23.13
61963;BME280;47927;42.646;23.096;2023-04-07T06:41:28;91842.19;;;14.69;22.66
61963;BME280;47927;42.646;23.096;2023-04-07T06:43:54;91842.75;;;14.12;22.79
61963;BME280;47927;42.646;23.096;2023-04-07T06:46:19;91828.16;;;13.10;23.10
61963;BME280;47927;42.646;23.096;2023-04-07T06:48:45;91835.56;;;13.30;23.91
61963;BME280;47927;42.646;23.096;2023-04-07T06:51:11;91837.03;;;13.31;24.07
61963;BME280;47927;42.646;23.096;2023-04-07T06:53:36;91836.06;;;12.96;24.84
61963;BME280;47927;42.646;23.096;2023-04-07T06:56:06;91837.75;;;13.35;24.28
61963;BME280;47927;42.646;23.096;2023-04-07T06:58:33;91843.16;;;12.99;24.04
61963;BME280;47927;42.646;23.096;2023-04-07T07:00:59;91846.09;;;11.99;25.04
61963;BME280;47927;42.646;23.096;2023-04-07T07:03:25;91802.03;;;12.04;24.73
61963;BME280;47927;42.646;23.096;2023-04-07T07:05:56;91795.00;;;11.76;24.88
61963;BME280;47927;42.646;23.096;2023-04-07T07:08:26;91845.22;;;10.87;25.96
61963;BME280;47927;42.646;23.096;2023-04-07T07:10:52;91853.53;;;11.61;26.17
61963;BME280;47927;42.646;23.096;2023-04-07T07:13:20;91812.81;;;12.24;24.54
61963;BME280;47927;42.646;23.096;2023-04-07T07:15:48;91796.28;;;12.60;24.83
61963;BME280;47927;42.646;23.096;2023-04-07T07:18:13;91827.31;;;12.50;24.71
61963;BME280;47927;42.646;23.096;2023-04-07T07:20:39;91848.69;;;11.70;26.55
61963;BME280;47927;42.646;23.096;2023-04-07T07:23:04;91856.88;;;11.79;26.95
61963;BME280;47927;42.646;23.096;2023-04-07T07:25:30;91863.22;;;12.07;26.56
61963;BME280;47927;42.646;23.096;2023-04-07T07:27:56;91859.88;;;12.17;26.24
61963;BME280;47927;42.646;23.096;2023-04-07T07:30:22;91857.59;;;12.26;24.90
61963;BME280;47927;42.646;23.096;2023-04-07T07:32:48;91870.69;;;12.08;26.12
61963;BME280;47927;42.646;23.096;2023-04-07T07:35:14;91805.81;;;11.82;25.98
61963;BME280;47927;42.646;23.096;2023-04-07T07:37:40;91864.28;;;12.42;25.75
61963;BME280;47927;42.646;23.096;2023-04-07T07:40:06;91856.22;;;13.06;24.73
61963;BME280;47927;42.646;23.096;2023-04-07T07:42:31;91791.19;;;12.24;25.09
61963;BME280;47927;42.646;23.096;2023-04-07T07:44:57;91864.25;;;12.56;25.51
61963;BME280;47927;42.646;23.096;2023-04-07T07:47:24;91873.63;;;12.32;26.65
61963;BME280;47927;42.646;23.096;2023-04-07T07:49:50;91871.38;;;12.30;25.96
61963;BME280;47927;42.646;23.096;2023-04-07T07:52:16;91845.69;;;11.79;26.41
61963;BME280;47927;42.646;23.096;2023-04-07T07:54:41;91876.63;;;11.62;27.48
61963;BME280;47927;42.646;23.096;2023-04-07T07:57:07;91822.22;;;11.39;26.79
61963;BME280;47927;42.646;23.096;2023-04-07T07:59:33;91866.19;;;11.55;26.53
61963;BME280;47927;42.646;23.096;2023-04-07T08:01:58;91785.69;;;11.29;27.18
61963;BME280;47927;42.646;23.096;2023-04-07T08:04:24;91807.59;;;10.85;27.39
61963;BME280;47927;42.646;23.096;2023-04-07T08:06:50;91876.56;;;11.23;27.73
61963;BME280;47927;42.646;23.096;2023-04-07T08:09:17;91797.53;;;10.76;27.60
61963;BME280;47927;42.646;23.096;2023-04-07T08:11:42;91846.03;;;10.22;28.13
61963;BME280;47927;42.646;23.096;2023-04-07T08:14:08;91840.34;;;10.75;27.60
61963;BME280;47927;42.646;23.096;2023-04-07T08:16:33;91886.25;;;11.26;27.26
61963;BME280;47927;42.646;23.096;2023-04-07T08:18:59;91877.25;;;10.95;27.61
61963;BME280;47927;42.646;23.096;2023-04-07T08:21:25;91879.94;;;11.27;28.17
61963;BME280;47927;42.646;23.096;2023-04-07T08:23:53;91873.66;;;13.31;25.92
61963;BME280;47927;42.646;23.096;2023-04-07T08:26:18;91858.13;;;14.86;23.14
61963;BME280;47927;42.646;23.096;2023-04-07T08:28:44;91879.28;;;17.53;21.30
61963;BME280;47927;42.646;23.096;2023-04-07T08:31:09;91876.91;;;16.87;21.23
61963;BME280;47927;42.646;23.096;2023-04-07T08:33:35;91874.75;;;17.54;20.66
61963;BME280;47927;42.646;23.096;2023-04-07T08:36:01;91823.69;;;18.75;19.77
61963;BME280;47927;42.646;23.096;2023-04-07T08:38:26;91872.44;;;19.00;18.23
61963;BME280;47927;42.646;23.096;2023-04-07T08:40:59;91837.81;;;18.23;20.17
61963;BME280;47927;42.646;23.096;2023-04-07T08:43:28;91866.00;;;18.10;19.70
61963;BME280;47927;42.646;23.096;2023-04-07T08:45:56;91871.94;;;17.81;19.81
61963;BME280;47927;42.646;23.096;2023-04-07T08:48:23;91868.06;;;17.33;20.06
61963;BME280;47927;42.646;23.096;2023-04-07T08:50:52;91862.06;;;18.02;20.30
61963;BME280;47927;42.646;23.096;2023-04-07T08:53:39;91834.56;;;16.57;21.34
61963;BME280;47927;42.646;23.096;2023-04-07T08:56:06;91808.47;;;16.47;21.01
61963;BME280;47927;42.646;23.096;2023-04-07T08:58:34;91849.44;;;16.01;22.14
61963;BME280;47927;42.646;23.096;2023-04-07T09:01:03;91880.56;;;16.02;21.27
61963;BME280;47927;42.646;23.096;2023-04-07T09:03:29;91802.97;;;15.47;21.13
61963;BME280;47927;42.646;23.096;2023-04-07T09:05:57;91879.66;;;14.70;22.38
61963;BME280;47927;42.646;23.096;2023-04-07T09:08:24;91878.28;;;13.72;24.82
61963;BME280;47927;42.646;23.096;2023-04-07T09:10:49;91831.28;;;12.84;24.65
61963;BME280;47927;42.646;23.096;2023-04-07T09:13:15;91874.13;;;13.08;24.92
61963;BME280;47927;42.646;23.096;2023-04-07T09:15:41;91855.22;;;13.52;24.13
61963;BME280;47927;42.646;23.096;2023-04-07T09:18:07;91885.59;;;13.91;23.41
61963;BME280;47927;42.646;23.096;2023-04-07T09:21:01;91880.84;;;13.75;24.37
61963;BME280;47927;42.646;23.096;2023-04-07T09:23:33;91876.28;;;13.86;24.27
61963;BME280;47927;42.646;23.096;2023-04-07T09:26:09;91867.91;;;14.02;23.63
61963;BME280;47927;42.646;23.096;2023-04-07T09:28:44;91885.28;;;13.82;24.29
61963;BME280;47927;42.646;23.096;2023-04-07T09:31:09;91880.97;;;13.57;24.07
61963;BME280;47927;42.646;23.096;2023-04-07T09:33:35;91865.69;;;13.52;24.59
61963;BME280;47927;42.646;23.096;2023-04-07T09:36:04;91884.66;;;13.67;24.43
61963;BME280;47927;42.646;23.096;2023-04-07T09:38:35;91882.09;;;14.08;24.52
61963;BME280;47927;42.646;23.096;2023-04-07T09:41:15;91890.94;;;14.22;24.26
61963;BME280;47927;42.646;23.096;2023-04-07T09:43:42;91880.13;;;13.75;24.54
61963;BME280;47927;42.646;23.096;2023-04-07T09:46:13;91886.63;;;12.57;25.09
61963;BME280;47927;42.646;23.096;2023-04-07T09:48:40;91872.00;;;13.58;24.58
61963;BME280;47927;42.646;23.096;2023-04-07T09:51:10;91882.06;;;14.12;24.09
61963;BME280;47927;42.646;23.096;2023-04-07T09:53:47;91879.88;;;14.03;24.74
61963;BME280;47927;42.646;23.096;2023-04-07T09:56:19;91885.88;;;14.00;24.92
61963;BME280;47927;42.646;23.096;2023-04-07T09:58:48;91884.16;;;13.16;25.60
61963;BME280;47927;42.646;23.096;2023-04-07T10:01:16;91882.59;;;13.37;25.46
61963;BME280;47927;42.646;23.096;2023-04-07T10:03:44;91881.03;;;13.47;26.04
61963;BME280;47927;42.646;23.096;2023-04-07T10:06:10;91892.19;;;14.06;24.73
61963;BME280;47927;42.646;23.096;2023-04-07T10:08:39;91893.66;;;13.62;25.35
61963;BME280;47927;42.646;23.096;2023-04-07T10:11:05;91896.69;;;13.57;25.06
61963;BME280;47927;42.646;23.096;2023-04-07T10:13:33;91899.63;;;13.66;25.18
61963;BME280;47927;42.646;23.096;2023-04-07T10:16:01;91891.16;;;13.97;24.28
61963;BME280;47927;42.646;23.096;2023-04-07T10:18:29;91889.09;;;14.19;24.03
61963;BME280;47927;42.646;23.096;2023-04-07T10:20:56;91861.22;;;13.49;24.86
61963;BME280;47927;42.646;23.096;2023-04-07T10:23:33;91892.47;;;13.74;25.59
61963;BME280;47927;42.646;23.096;2023-04-07T10:26:04;91890.47;;;13.89;25.07
61963;BME280;47927;42.646;23.096;2023-04-07T10:28:32;91888.59;;;13.89;24.93
61963;BME280;47927;42.646;23.096;2023-04-07T10:31:02;91893.50;;;13.84;24.63
61963;BME280;47927;42.646;23.096;2023-04-07T10:33:44;91895.81;;;14.23;24.81
61963;BME280;47927;42.646;23.096;2023-04-07T10:36:10;91899.16;;;14.24;23.96
61963;BME280;47927;42.646;23.096;2023-04-07T10:38:36;91902.19;;;13.70;24.99
61963;BME280;47927;42.646;23.096;2023-04-07T10:43:59;91909.78;;;12.62;26.64
61963;BME280;47927;42.646;23.096;2023-04-07T10:46:35;91913.16;;;12.56;26.57
61963;BME280;47927;42.646;23.096;2023-04-07T10:49:15;91843.44;;;12.17;26.05
61963;BME280;47927;42.646;23.096;2023-04-07T10:51:43;91906.06;;;12.49;25.90
61963;BME280;47927;42.646;23.096;2023-04-07T10:57:06;91910.88;;;11.29;27.79
61963;BME280;47927;42.646;23.096;2023-04-07T10:59:35;91906.06;;;11.52;28.92
61963;BME280;47927;42.646;23.096;2023-04-07T11:04:40;91902.22;;;12.86;26.08
61963;BME280;47927;42.646;23.096;2023-04-07T11:07:07;91906.25;;;13.05;26.29
61963;BME280;47927;42.646;23.096;2023-04-07T11:09:33;91906.25;;;13.12;26.65
61963;BME280;47927;42.646;23.096;2023-04-07T11:11:59;91907.31;;;13.25;26.21
61963;BME280;47927;42.646;23.096;2023-04-07T11:14:29;91906.06;;;13.51;25.12
61963;BME280;47927;42.646;23.096;2023-04-07T11:16:55;91913.03;;;13.72;25.06
61963;BME280;47927;42.646;23.096;2023-04-07T11:19:21;91904.41;;;13.75;25.00
61963;BME280;47927;42.646;23.096;2023-04-07T11:21:47;91863.81;;;13.49;25.37
61963;BME280;47927;42.646;23.096;2023-04-07T11:24:34;91903.91;;;13.32;25.69
61963;BME280;47927;42.646;23.096;2023-04-07T11:27:02;91901.69;;;13.30;25.71
61963;BME280;47927;42.646;23.096;2023-04-07T11:29:28;91835.72;;;12.94;25.41
61963;BME280;47927;42.646;23.096;2023-04-07T11:31:57;91902.56;;;13.72;25.03
61963;BME280;47927;42.646;23.096;2023-04-07T11:34:28;91846.38;;;13.32;24.92
61963;BME280;47927;42.646;23.096;2023-04-07T11:36:54;91863.03;;;13.59;24.70
61963;BME280;47927;42.646;23.096;2023-04-07T11:39:24;91907.59;;;14.01;25.27
61963;BME280;47927;42.646;23.096;2023-04-07T11:41:56;91897.09;;;14.01;24.76
61963;BME280;47927;42.646;23.096;2023-04-07T11:44:22;91898.19;;;13.55;25.02
61963;BME280;47927;42.646;23.096;2023-04-07T11:46:57;91913.50;;;12.54;26.03
61963;BME280;47927;42.646;23.096;2023-04-07T11:49:25;91887.41;;;12.50;25.91
61963;BME280;47927;42.646;23.096;2023-04-07T11:52:05;91905.88;;;13.03;24.96
61963;BME280;47927;42.646;23.096;2023-04-07T11:54:41;91900.03;;;12.77;25.24
61963;BME280;47927;42.646;23.096;2023-04-07T11:57:07;91809.91;;;11.51;26.40
61963;BME280;47927;42.646;23.096;2023-04-07T11:59:36;91864.34;;;11.63;27.42
61963;BME280;47927;42.646;23.096;2023-04-07T12:02:02;91898.28;;;12.20;27.66
61963;BME280;47927;42.646;23.096;2023-04-07T12:04:28;91897.09;;;12.64;26.95
61963;BME280;47927;42.646;23.096;2023-04-07T12:07:06;91840.00;;;12.56;26.08
61963;BME280;47927;42.646;23.096;2023-04-07T12:09:33;91904.84;;;12.78;26.12
61963;BME280;47927;42.646;23.096;2023-04-07T12:12:03;91898.53;;;12.80;25.76
61963;BME280;47927;42.646;23.096;2023-04-07T12:14:32;91902.88;;;13.11;26.07
61963;BME280;47927;42.646;23.096;2023-04-07T12:16:58;91900.06;;;12.52;26.35
61963;BME280;47927;42.646;23.096;2023-04-07T12:19:26;91896.97;;;12.93;26.50
61963;BME280;47927;42.646;23.096;2023-04-07T12:21:53;91829.47;;;12.66;26.84
61963;BME280;47927;42.646;23.096;2023-04-07T12:24:19;91897.28;;;13.13;26.27
61963;BME280;47927;42.646;23.096;2023-04-07T12:26:44;91900.69;;;12.99;26.79
61963;BME280;47927;42.646;23.096;2023-04-07T12:29:10;91899.09;;;13.27;26.26
61963;BME280;47927;42.646;23.096;2023-04-07T12:31:35;91909.94;;;13.14;26.77
61963;BME280;47927;42.646;23.096;2023-04-07T12:34:01;91902.09;;;13.21;27.06
61963;BME280;47927;42.646;23.096;2023-04-07T12:36:27;91907.19;;;13.54;26.07
61963;BME280;47927;42.646;23.096;2023-04-07T12:38:54;91915.41;;;13.52;26.93
61963;BME280;47927;42.646;23.096;2023-04-07T12:41:20;91903.22;;;13.87;24.44
61963;BME280;47927;42.646;23.096;2023-04-07T12:43:45;91897.34;;;13.72;25.59
61963;BME280;47927;42.646;23.096;2023-04-07T12:46:11;91908.25;;;14.12;25.58
61963;BME280;47927;42.646;23.096;2023-04-07T12:48:37;91834.94;;;13.63;25.34
61963;BME280;47927;42.646;23.096;2023-04-07T12:51:03;91903.63;;;14.27;24.83
61963;BME280;47927;42.646;23.096;2023-04-07T12:53:29;91901.91;;;14.09;24.92
61963;BME280;47927;42.646;23.096;2023-04-07T12:55:55;91885.28;;;13.82;24.79
61963;BME280;47927;42.646;23.096;2023-04-07T12:58:21;91903.56;;;13.26;25.80
61963;BME280;47927;42.646;23.096;2023-04-07T13:00:46;91907.34;;;13.18;26.41
61963;BME280;47927;42.646;23.096;2023-04-07T13:03:12;91890.81;;;13.39;25.98
61963;BME280;47927;42.646;23.096;2023-04-07T13:05:38;91903.25;;;13.80;25.02
61963;BME280;47927;42.646;23.096;2023-04-07T13:08:04;91874.88;;;13.71;25.55
61963;BME280;47927;42.646;23.096;2023-04-07T13:10:30;91910.19;;;14.04;25.24
61963;BME280;47927;42.646;23.096;2023-04-07T13:12:55;91899.53;;;14.26;25.37
61963;BME280;47927;42.646;23.096;2023-04-07T13:15:21;91907.09;;;14.17;25.10